createdAt,value
2018-07-14T00:02:07.442Z,10.87
2018-07-14T00:05:10.535Z,9.83
2018-07-14T00:08:13.613Z,12.33
2018-07-14T00:11:16.721Z,9.93
2018-07-14T00:14:19.785Z,12.13
2018-07-14T00:17:22.852Z,9.83
2018-07-14T00:20:25.915Z,10.33
2018-07-14T00:23:28.979Z,10.73
2018-07-14T00:26:32.110Z,11.90
2018-07-14T00:29:35.182Z,10.83
2018-07-14T00:32:38.261Z,10.80
2018-07-14T00:35:41.349Z,12.43
2018-07-14T00:38:44.422Z,12.90
2018-07-14T00:41:47.562Z,15.40
2018-07-14T00:44:50.637Z,14.77
2018-07-14T00:47:53.742Z,12.20
2018-07-14T00:50:56.821Z,13.07
2018-07-14T00:53:59.889Z,12.23
2018-07-14T00:57:02.979Z,12.13
2018-07-14T01:00:06.089Z,11.33
2018-07-14T01:03:09.197Z,10.73
2018-07-14T01:06:12.293Z,11.57
2018-07-14T01:09:15.368Z,10.93
2018-07-14T01:12:23.448Z,12.00
2018-07-14T01:15:26.524Z,11.87
2018-07-14T01:18:29.637Z,14.27
2018-07-14T01:21:32.715Z,14.23
2018-07-14T01:24:35.812Z,13.87
2018-07-14T01:27:38.918Z,14.03
2018-07-14T01:30:42.814Z,15.50
2018-07-14T01:33:46.013Z,12.97
2018-07-14T01:36:49.121Z,17.33
2018-07-14T01:39:52.172Z,16.53
2018-07-14T01:42:55.300Z,16.27
2018-07-14T01:45:58.369Z,15.23
2018-07-14T01:49:01.467Z,17.07
2018-07-14T01:52:04.537Z,17.40
2018-07-14T01:55:07.605Z,17.37
2018-07-14T01:58:10.669Z,17.10
2018-07-14T02:01:13.748Z,18.70
2018-07-14T02:04:16.809Z,16.30
2018-07-14T02:07:19.913Z,20.80
2018-07-14T02:10:22.993Z,20.23
2018-07-14T02:13:26.125Z,17.10
2018-07-14T02:16:29.236Z,17.90
2018-07-14T02:19:32.333Z,22.23
2018-07-14T02:22:35.405Z,19.20
2018-07-14T02:25:38.601Z,20.57
2018-07-14T02:28:41.657Z,20.53
2018-07-14T02:31:44.761Z,20.80
2018-07-14T02:34:47.873Z,19.40
2018-07-14T02:37:51.149Z,17.27
2018-07-14T02:40:54.233Z,19.63
2018-07-14T02:43:57.298Z,22.77
2018-07-14T02:47:00.433Z,21.17
2018-07-14T02:50:03.647Z,22.17
2018-07-14T02:53:06.740Z,21.20
2018-07-14T02:56:09.842Z,23.13
2018-07-14T02:59:12.913Z,22.83
2018-07-14T03:02:16.012Z,24.73
2018-07-14T03:05:19.092Z,23.10
2018-07-14T03:08:22.187Z,26.73
2018-07-14T03:11:25.258Z,24.13
2018-07-14T03:14:28.373Z,23.37
2018-07-14T03:17:31.464Z,23.80
2018-07-14T03:20:34.561Z,26.13
2018-07-14T03:23:37.657Z,22.33
2018-07-14T03:26:40.730Z,22.93
2018-07-14T03:29:43.813Z,21.80
2018-07-14T03:32:46.886Z,29.00
2018-07-14T03:35:49.965Z,22.93
2018-07-14T03:38:53.042Z,26.00
2018-07-14T03:41:56.136Z,21.53
2018-07-14T03:44:58.968Z,26.23
2018-07-14T03:48:02.100Z,23.03
2018-07-14T03:51:05.206Z,26.67
2018-07-14T03:54:08.292Z,28.87
2018-07-14T03:57:11.414Z,30.03
2018-07-14T04:00:14.517Z,30.57
2018-07-14T04:03:17.623Z,30.57
2018-07-14T04:06:20.698Z,27.57
2018-07-14T04:09:23.780Z,30.70
2018-07-14T04:12:26.842Z,24.87
2018-07-14T04:15:29.953Z,27.20
2018-07-14T04:18:33.039Z,26.57
2018-07-14T04:21:36.133Z,25.47
2018-07-14T04:24:39.252Z,26.43
2018-07-14T04:27:42.316Z,26.30
2018-07-14T04:30:45.437Z,26.73
2018-07-14T04:33:48.533Z,25.50
2018-07-14T04:36:51.765Z,25.00
2018-07-14T04:39:54.829Z,22.93
2018-07-14T04:42:57.940Z,27.53
2018-07-14T04:46:01.012Z,22.47
2018-07-14T04:49:04.124Z,21.67
2018-07-14T04:52:07.201Z,20.10
2018-07-14T04:55:10.318Z,22.63
2018-07-14T04:58:13.413Z,20.70
2018-07-14T05:01:16.501Z,18.63
2018-07-14T05:04:19.601Z,18.83
2018-07-14T05:07:22.754Z,19.20
2018-07-14T05:10:25.841Z,20.53
2018-07-14T05:13:28.921Z,20.37
2018-07-14T05:16:31.981Z,19.03
2018-07-14T05:19:35.225Z,20.00
2018-07-14T05:22:38.305Z,19.83
2018-07-14T05:25:41.401Z,21.20
2018-07-14T05:28:44.493Z,19.70
2018-07-14T05:31:47.613Z,19.03
2018-07-14T05:34:50.693Z,21.03
2018-07-14T05:37:53.801Z,23.00
2018-07-14T05:40:56.692Z,21.67
2018-07-14T05:43:59.592Z,18.73
2018-07-14T05:47:02.646Z,22.10
2018-07-14T05:50:05.895Z,22.17
2018-07-14T05:53:08.993Z,18.70
2018-07-14T05:56:12.088Z,20.13
2018-07-14T05:59:15.193Z,19.80
2018-07-14T06:02:18.353Z,18.83
2018-07-14T06:05:21.477Z,19.50
2018-07-14T06:08:24.576Z,16.93
2018-07-14T06:11:27.660Z,17.47
2018-07-14T06:14:30.752Z,16.93
2018-07-14T06:17:33.842Z,13.23
2018-07-14T06:20:36.933Z,12.13
2018-07-14T06:23:39.986Z,11.63
2018-07-14T06:26:43.085Z,12.03
2018-07-14T06:29:46.209Z,14.43
2018-07-14T06:32:49.307Z,11.37
2018-07-14T06:35:52.462Z,12.53
2018-07-14T06:38:55.509Z,12.10
2018-07-14T06:41:58.598Z,10.90
2018-07-14T06:45:01.682Z,11.37
2018-07-14T06:48:04.757Z,10.80
2018-07-14T06:51:07.831Z,11.13
2018-07-14T06:54:10.996Z,10.88
2018-07-14T06:57:14.078Z,12.55
2018-07-14T07:00:16.949Z,10.48
2018-07-14T07:03:20.064Z,10.55
2018-07-14T07:06:23.126Z,9.20
2018-07-14T07:09:26.273Z,9.78
2018-07-14T07:12:29.348Z,10.78
2018-07-14T07:15:32.464Z,10.80
2018-07-14T07:18:35.691Z,9.65
2018-07-14T07:21:38.777Z,10.82
2018-07-14T07:24:41.846Z,10.28
2018-07-14T07:27:44.940Z,10.15
2018-07-14T07:30:48.054Z,11.03
2018-07-14T07:33:51.371Z,11.22
2018-07-14T07:36:54.647Z,11.68
2018-07-14T07:39:57.962Z,10.98
2018-07-14T07:43:01.127Z,10.63
2018-07-14T07:46:08.869Z,10.30
2018-07-14T07:49:12.025Z,11.70
2018-07-14T07:52:15.579Z,10.48
2018-07-14T07:55:18.949Z,11.93
2018-07-14T08:01:31.836Z,11.65
2018-07-14T08:04:35.029Z,12.00
2018-07-14T08:07:38.236Z,11.55
2018-07-14T08:10:41.446Z,11.70
2018-07-14T08:13:44.678Z,11.50
2018-07-14T08:16:47.910Z,10.90
2018-07-14T08:19:51.382Z,10.82
2018-07-14T08:22:54.705Z,11.88
2018-07-14T08:25:57.916Z,11.03
2018-07-14T08:29:01.255Z,10.50
2018-07-14T08:32:04.484Z,10.35
2018-07-14T08:35:07.701Z,11.28
2018-07-14T08:38:10.827Z,11.53
2018-07-14T08:41:13.882Z,10.70
2018-07-14T08:44:16.979Z,10.32
2018-07-14T08:47:20.057Z,10.93
2018-07-14T08:50:23.367Z,10.28
2018-07-14T08:53:26.448Z,10.68
2018-07-14T08:56:29.520Z,10.20
2018-07-14T08:59:32.608Z,10.72
2018-07-14T09:02:35.718Z,9.53
2018-07-14T09:05:38.811Z,10.03
2018-07-14T09:08:41.884Z,9.18
2018-07-14T09:11:44.940Z,9.30
2018-07-14T09:14:47.902Z,10.18
2018-07-14T09:17:50.984Z,10.03
2018-07-14T09:20:54.091Z,10.43
2018-07-14T09:23:57.180Z,8.25
2018-07-14T09:27:00.237Z,9.55
2018-07-14T09:30:03.334Z,8.85
2018-07-14T09:33:06.431Z,8.57
2018-07-14T09:36:09.498Z,8.50
2018-07-14T09:39:12.578Z,8.57
2018-07-14T09:42:15.449Z,9.53
2018-07-14T09:45:18.533Z,9.10
2018-07-14T09:48:21.800Z,9.27
2018-07-14T09:51:25.067Z,9.50
2018-07-14T09:54:28.325Z,10.07
2018-07-14T09:57:31.538Z,9.47
2018-07-14T10:00:35.509Z,9.67
2018-07-14T10:03:39.477Z,9.33
2018-07-14T10:06:42.778Z,8.33
2018-07-14T10:09:51.603Z,9.00
2018-07-14T10:12:55.176Z,6.77
2018-07-14T10:15:58.516Z,6.80
2018-07-14T10:19:01.756Z,7.17
2018-07-14T10:22:05.210Z,8.73
2018-07-14T10:25:08.550Z,7.73
2018-07-14T10:28:11.465Z,9.03
2018-07-14T10:31:14.701Z,16.13
2018-07-14T10:34:17.964Z,7.03
2018-07-14T10:37:21.299Z,6.50
2018-07-14T10:40:24.588Z,7.63
2018-07-14T10:43:27.832Z,6.57
2018-07-14T10:46:30.760Z,6.80
2018-07-14T10:49:33.989Z,16.13
2018-07-14T10:52:37.257Z,6.30
2018-07-14T10:55:40.501Z,5.80
2018-07-14T10:58:43.710Z,5.13
2018-07-14T11:01:46.958Z,7.03
2018-07-14T11:05:06.730Z,5.00
2018-07-14T11:08:10.041Z,6.57
2018-07-14T11:11:13.434Z,5.50
2018-07-14T11:14:16.633Z,5.30
2018-07-14T11:17:20.028Z,5.93
2018-07-14T11:20:23.253Z,6.97
2018-07-14T11:23:26.432Z,8.93
2018-07-14T11:26:29.694Z,6.63
2018-07-14T11:29:32.946Z,6.20
2018-07-14T11:32:36.329Z,10.30
2018-07-14T11:35:39.618Z,6.47
2018-07-14T11:38:42.841Z,6.73
2018-07-14T11:41:46.106Z,7.73
2018-07-14T11:44:49.356Z,7.37
2018-07-14T11:47:52.699Z,7.17
2018-07-14T11:50:55.994Z,8.73
2018-07-14T11:53:59.233Z,7.33
2018-07-14T11:57:02.473Z,6.63
2018-07-14T12:00:05.682Z,7.00
2018-07-14T12:03:08.928Z,7.97
2018-07-14T12:06:12.138Z,7.30
2018-07-14T12:09:16.090Z,13.90
2018-07-14T12:12:19.261Z,8.17
2018-07-14T12:15:22.447Z,7.40
2018-07-14T12:18:25.586Z,5.83
2018-07-14T12:21:28.851Z,6.83
2018-07-14T12:24:32.042Z,8.67
2018-07-14T12:27:35.269Z,8.07
2018-07-14T12:30:38.500Z,7.60
2018-07-14T12:33:41.502Z,7.83
2018-07-14T12:36:44.838Z,9.03
2018-07-14T12:39:48.066Z,7.80
2018-07-14T12:42:51.285Z,11.27
2018-07-14T12:45:54.510Z,8.00
2018-07-14T12:48:57.719Z,7.13
2018-07-14T12:52:00.951Z,7.10
2018-07-14T12:55:04.150Z,6.77
2018-07-14T12:58:07.370Z,7.83
2018-07-14T13:01:10.648Z,6.93
2018-07-14T13:04:13.846Z,11.40
2018-07-14T13:07:17.046Z,6.90
2018-07-14T13:10:20.342Z,7.10
2018-07-14T13:13:23.535Z,7.57
2018-07-14T13:16:26.826Z,10.30
2018-07-14T13:19:30.046Z,6.67
2018-07-14T13:22:33.378Z,7.20
2018-07-14T13:25:36.643Z,6.47
2018-07-14T13:28:39.946Z,7.00
2018-07-14T13:31:43.740Z,8.57
2018-07-14T13:34:47.030Z,7.33
2018-07-14T13:37:50.327Z,7.43
2018-07-14T13:40:53.534Z,8.60
2018-07-14T13:43:56.498Z,7.53
2018-07-14T13:46:59.795Z,17.03
2018-07-14T13:50:03.117Z,7.87
2018-07-14T13:53:06.435Z,7.33
2018-07-14T13:56:09.402Z,7.47
2018-07-14T13:59:12.806Z,9.13
2018-07-14T14:02:15.818Z,7.60
2018-07-14T14:05:19.945Z,10.23
2018-07-14T14:08:23.103Z,9.40
2018-07-14T14:11:26.412Z,6.90
2018-07-14T14:14:31.201Z,8.10
2018-07-14T14:17:34.417Z,7.33
2018-07-14T14:20:37.657Z,7.53
2018-07-14T14:23:40.914Z,8.30
2018-07-14T14:26:44.178Z,6.50
2018-07-14T14:29:47.382Z,7.07
2018-07-14T14:32:50.595Z,12.73
2018-07-14T14:35:53.849Z,8.57
2018-07-14T14:38:57.161Z,7.50
2018-07-14T14:45:31.950Z,8.27
2018-07-14T14:48:35.258Z,8.50
2018-07-14T14:51:38.592Z,6.50
2018-07-14T14:54:41.842Z,7.50
2018-07-14T14:57:45.178Z,7.30
2018-07-14T15:00:48.313Z,7.50
2018-07-14T15:03:51.533Z,7.97
2018-07-14T15:06:54.723Z,8.43
2018-07-14T15:09:57.929Z,7.90
2018-07-14T15:13:01.150Z,9.67
2018-07-14T15:16:04.454Z,10.17
2018-07-14T15:19:07.640Z,15.73
2018-07-14T15:22:10.811Z,7.20
2018-07-14T15:25:14.033Z,7.30
2018-07-14T15:28:17.242Z,8.83
2018-07-14T15:31:20.838Z,7.90
2018-07-14T15:34:24.112Z,7.10
2018-07-14T15:37:27.335Z,10.23
2018-07-14T15:40:30.547Z,7.33
2018-07-14T15:43:33.857Z,7.83
2018-07-14T15:46:36.903Z,7.43
2018-07-14T15:49:40.125Z,6.90
2018-07-14T15:52:43.313Z,8.03
2018-07-14T15:55:46.631Z,8.40
2018-07-14T15:58:49.996Z,8.50
2018-07-14T16:01:53.313Z,7.30
2018-07-14T16:04:57.194Z,7.90
2018-07-14T16:08:00.470Z,7.63
2018-07-14T16:11:03.517Z,7.90
2018-07-14T16:14:07.184Z,8.40
2018-07-14T16:17:10.733Z,14.17
2018-07-14T16:20:13.802Z,10.53
2018-07-14T16:23:17.014Z,9.50
2018-07-14T16:26:20.258Z,7.40
2018-07-14T16:29:23.561Z,8.50
2018-07-14T16:32:26.931Z,7.80
2018-07-14T16:35:30.145Z,7.00
2018-07-14T16:38:33.026Z,8.40
2018-07-14T16:41:36.302Z,7.50
2018-07-14T16:44:40.332Z,7.50
2018-07-14T16:47:44.371Z,8.00
2018-07-14T16:50:47.979Z,8.83
2018-07-14T16:53:51.963Z,7.27
2018-07-14T16:56:56.075Z,7.50
2018-07-14T17:00:00.297Z,8.07
2018-07-14T17:03:03.834Z,7.70
2018-07-14T17:06:07.869Z,11.33
2018-07-14T17:09:11.121Z,7.67
2018-07-14T17:12:14.314Z,9.27
2018-07-14T17:15:17.543Z,10.13
2018-07-14T17:18:20.944Z,8.13
2018-07-14T17:21:24.197Z,10.93
2018-07-14T17:24:27.394Z,9.93
2018-07-14T17:27:30.734Z,7.40
2018-07-14T17:30:36.953Z,7.70
2018-07-14T17:33:40.035Z,7.40
2018-07-14T17:36:43.108Z,9.77
2018-07-14T17:39:45.994Z,8.20
2018-07-14T17:42:48.844Z,8.03
2018-07-14T17:45:51.905Z,8.07
2018-07-14T17:48:55.000Z,8.83
2018-07-14T17:51:58.171Z,9.27
2018-07-14T17:55:01.137Z,8.10
2018-07-14T17:58:04.189Z,8.17
2018-07-14T18:01:07.257Z,8.67
2018-07-14T18:04:10.342Z,7.70
2018-07-14T18:07:13.429Z,9.27
2018-07-14T18:10:16.615Z,7.50
2018-07-14T18:13:19.850Z,8.23
2018-07-14T18:16:23.052Z,8.53
2018-07-14T18:19:26.361Z,8.97
2018-07-14T18:22:29.563Z,8.23
2018-07-14T18:25:32.850Z,8.53
2018-07-14T18:28:36.221Z,8.47
2018-07-14T18:31:39.457Z,9.23
2018-07-14T18:34:42.453Z,9.50
2018-07-14T18:37:45.429Z,9.93
2018-07-14T18:40:48.741Z,8.47
2018-07-14T18:43:51.790Z,8.97
2018-07-14T18:46:54.943Z,9.33
2018-07-14T18:49:58.212Z,9.40
2018-07-14T18:53:01.402Z,9.27
2018-07-14T18:56:04.570Z,8.43
2018-07-14T18:59:07.827Z,10.60
2018-07-14T19:02:11.068Z,11.13
2018-07-14T19:05:14.366Z,11.80
2018-07-14T19:08:17.510Z,10.67
2018-07-14T19:11:20.681Z,10.50
2018-07-14T19:14:23.707Z,10.63
2018-07-14T19:17:26.945Z,9.80
2018-07-14T19:20:30.154Z,11.57
2018-07-14T19:23:33.164Z,9.73
2018-07-14T19:26:36.379Z,10.40
2018-07-14T19:29:39.553Z,10.03
2018-07-14T19:32:42.726Z,11.27
2018-07-14T19:35:45.961Z,11.70
2018-07-14T19:38:49.145Z,10.47
2018-07-14T19:41:52.437Z,12.33
2018-07-14T19:44:55.669Z,11.17
2018-07-14T19:47:58.879Z,12.70
2018-07-14T19:51:02.220Z,13.70
2018-07-14T19:54:05.350Z,12.20
2018-07-14T19:57:08.633Z,12.67
2018-07-14T20:00:11.997Z,13.33
2018-07-14T20:03:17.019Z,12.20
2018-07-14T20:06:20.246Z,14.03
2018-07-14T20:09:23.510Z,12.47
2018-07-14T20:12:26.513Z,15.93
2018-07-14T20:15:29.726Z,13.30
2018-07-14T20:18:32.942Z,12.47
2018-07-14T20:21:36.158Z,13.63
2018-07-14T20:24:39.479Z,13.03
2018-07-14T20:27:42.717Z,12.27
2018-07-14T20:30:45.902Z,12.53
2018-07-14T20:33:49.146Z,11.50
2018-07-14T20:36:52.334Z,12.63
2018-07-14T20:39:55.621Z,11.67
2018-07-14T20:42:58.841Z,11.23
2018-07-14T20:46:02.027Z,12.07
2018-07-14T20:49:05.470Z,10.73
2018-07-14T20:52:08.721Z,10.13
2018-07-14T20:55:11.918Z,10.73
2018-07-14T20:58:18.602Z,9.80
2018-07-14T21:01:21.553Z,10.53
2018-07-14T21:04:24.752Z,9.37
2018-07-14T21:07:27.935Z,10.40
2018-07-14T21:10:31.167Z,10.93
2018-07-14T21:13:34.466Z,10.77
2018-07-14T21:16:37.722Z,9.30
2018-07-14T21:19:40.638Z,9.63
2018-07-14T21:22:43.842Z,8.43
2018-07-14T21:25:47.063Z,11.13
2018-07-14T21:28:50.309Z,8.07
2018-07-14T21:31:53.616Z,8.60
2018-07-14T21:34:56.956Z,9.23
2018-07-14T21:38:06.880Z,8.03
2018-07-14T21:41:10.094Z,9.60
2018-07-14T21:44:13.341Z,8.27
2018-07-14T21:47:16.539Z,7.60
2018-07-14T21:50:19.830Z,7.90
2018-07-14T21:53:23.010Z,7.37
2018-07-14T21:56:26.250Z,7.77
2018-07-14T21:59:29.483Z,7.47
2018-07-14T22:02:32.717Z,7.13
2018-07-14T22:05:35.945Z,7.00
2018-07-14T22:08:38.885Z,6.57
2018-07-14T22:11:42.280Z,6.30
2018-07-14T22:14:45.534Z,6.07
2018-07-14T22:17:48.775Z,6.67
2018-07-14T22:20:52.105Z,6.00
2018-07-14T22:23:55.438Z,5.70
2018-07-14T22:26:58.796Z,6.83
2018-07-14T22:30:02.111Z,5.60
2018-07-14T22:33:05.334Z,5.47
2018-07-14T22:36:08.634Z,5.23
2018-07-14T22:39:11.785Z,5.17
2018-07-14T22:42:14.987Z,5.27
2018-07-14T22:45:18.129Z,6.70
2018-07-14T22:48:21.338Z,5.20
2018-07-14T22:51:24.523Z,5.60
2018-07-14T22:54:27.724Z,4.70
2018-07-14T22:57:30.887Z,4.60
2018-07-14T23:00:34.078Z,5.00
2018-07-14T23:03:37.291Z,5.10
2018-07-14T23:06:40.625Z,4.53
2018-07-14T23:09:43.677Z,5.40
2018-07-14T23:12:46.910Z,5.60
2018-07-14T23:15:50.097Z,5.00
2018-07-14T23:18:53.310Z,4.93
2018-07-14T23:22:03.314Z,5.80
2018-07-14T23:25:06.534Z,4.77
2018-07-14T23:28:09.853Z,5.53
2018-07-14T23:31:12.808Z,5.30
2018-07-14T23:34:16.005Z,5.80
2018-07-14T23:37:19.226Z,5.33
2018-07-14T23:40:22.276Z,5.87
2018-07-14T23:43:25.526Z,4.90
2018-07-14T23:46:28.794Z,5.33
2018-07-14T23:49:32.106Z,5.60
2018-07-14T23:52:35.287Z,5.97
2018-07-14T23:55:38.548Z,6.43
2018-07-14T23:58:41.829Z,5.30
